createdAt,value
2022-08-30T00:01:07.965Z,1.27
2022-08-30T00:06:18.011Z,1.00
2022-08-30T00:11:22.808Z,1.33
2022-08-30T00:16:30.204Z,1.50
2022-08-30T00:21:32.956Z,0.90
2022-08-30T00:26:40.488Z,1.00
2022-08-30T00:31:45.648Z,0.97
2022-08-30T00:36:48.313Z,0.80
2022-08-30T00:41:51.286Z,0.60
2022-08-30T00:46:56.343Z,0.70
2022-08-30T00:52:04.561Z,1.00
2022-08-30T00:57:08.062Z,0.70
2022-08-30T01:02:12.748Z,0.80
2022-08-30T01:07:16.099Z,0.97
2022-08-30T01:12:20.825Z,1.00
2022-08-30T01:17:23.366Z,0.60
2022-08-30T01:22:55.940Z,1.00
2022-08-30T01:28:01.674Z,0.83
2022-08-30T01:33:07.237Z,0.80
2022-08-30T01:38:10.211Z,0.82
2022-08-30T01:43:16.096Z,0.95
2022-08-30T01:48:18.536Z,0.90
2022-08-30T01:53:21.044Z,1.10
2022-08-30T01:58:25.882Z,1.17
2022-08-30T02:03:35.128Z,1.00
2022-08-30T02:08:38.075Z,1.00
2022-08-30T02:13:41.449Z,1.13
2022-08-30T02:18:46.908Z,1.13
2022-08-30T02:23:49.385Z,1.30
2022-08-30T02:28:54.661Z,1.30
2022-08-30T02:34:02.665Z,1.10
2022-08-30T02:39:08.270Z,1.10
2022-08-30T02:44:11.347Z,1.13
2022-08-30T02:54:38.586Z,1.23
2022-08-30T02:59:45.438Z,1.30
2022-08-30T03:04:50.413Z,1.13
2022-08-30T03:09:57.775Z,0.93
2022-08-30T03:15:00.190Z,0.90
2022-08-30T03:20:02.749Z,0.80
2022-08-30T03:25:07.857Z,0.60
2022-08-30T03:30:12.800Z,0.90
2022-08-30T03:35:18.224Z,0.80
2022-08-30T03:40:21.783Z,0.77
2022-08-30T03:45:35.963Z,0.90
2022-08-30T03:50:38.440Z,0.90
2022-08-30T03:55:40.898Z,0.90
2022-08-30T04:00:43.480Z,0.67
2022-08-30T04:05:48.362Z,0.80
2022-08-30T04:10:53.663Z,0.90
2022-08-30T04:15:58.539Z,0.80
2022-08-30T04:21:03.650Z,1.07
2022-08-30T04:26:05.973Z,0.73
2022-08-30T04:31:12.048Z,1.10
2022-08-30T04:36:17.004Z,1.00
2022-08-30T04:41:20.981Z,0.93
2022-08-30T04:46:25.806Z,1.10
2022-08-30T04:51:28.092Z,0.80
2022-08-30T04:56:30.431Z,0.85
2022-08-30T05:01:44.591Z,1.27
2022-08-30T05:06:53.330Z,1.30
2022-08-30T05:11:57.921Z,1.17
2022-08-30T05:17:03.020Z,1.38
2022-08-30T05:22:08.653Z,1.13
2022-08-30T05:27:13.538Z,1.80
2022-08-30T05:32:21.249Z,1.40
2022-08-30T05:37:25.918Z,1.25
2022-08-30T05:42:33.146Z,1.50
2022-08-30T05:47:40.910Z,1.40
2022-08-30T05:52:47.861Z,1.52
2022-08-30T05:57:52.549Z,1.60
2022-08-30T06:02:57.469Z,1.38
2022-08-30T06:08:04.830Z,1.40
2022-08-30T06:13:07.103Z,1.20
2022-08-30T06:18:14.429Z,2.05
2022-08-30T06:23:21.609Z,1.60
2022-08-30T06:28:23.950Z,1.40
2022-08-30T06:33:28.590Z,1.45
2022-08-30T06:38:33.291Z,1.60
2022-08-30T06:43:38.000Z,1.60
2022-08-30T06:48:46.370Z,1.60
2022-08-30T06:53:53.638Z,1.20
2022-08-30T06:58:56.023Z,1.98
2022-08-30T07:04:01.263Z,1.23
2022-08-30T07:09:03.744Z,1.60
2022-08-30T07:14:06.627Z,1.30
2022-08-30T07:19:18.586Z,1.48
2022-08-30T07:24:23.232Z,1.40
2022-08-30T07:29:27.953Z,1.00
2022-08-30T07:34:32.920Z,1.30
2022-08-30T07:39:40.109Z,1.15
2022-08-30T07:44:47.518Z,1.77
2022-08-30T07:49:49.795Z,1.13
2022-08-30T07:54:57.805Z,2.20
2022-08-30T08:00:00.456Z,4.45
2022-08-30T08:05:05.973Z,1.15
2022-08-30T08:10:13.730Z,1.60
2022-08-30T08:15:15.982Z,1.30
2022-08-30T08:20:20.924Z,1.15
2022-08-30T08:25:28.521Z,1.00
2022-08-30T08:30:34.277Z,1.10
2022-08-30T08:35:36.686Z,1.30
2022-08-30T08:40:57.051Z,1.30
2022-08-30T08:46:09.669Z,1.60
2022-08-30T08:51:36.141Z,1.38
2022-08-30T08:56:40.938Z,1.50
2022-08-30T09:01:51.024Z,1.65
2022-08-30T09:07:00.978Z,1.65
2022-08-30T09:12:06.466Z,1.27
2022-08-30T09:17:09.754Z,1.38
2022-08-30T09:22:22.280Z,1.67
2022-08-30T09:27:28.025Z,2.57
2022-08-30T09:32:32.350Z,2.20
2022-08-30T09:37:39.277Z,1.70
2022-08-30T09:42:41.714Z,1.93
2022-08-30T09:47:44.063Z,1.93
2022-08-30T09:53:10.792Z,2.00
2022-08-30T09:58:13.474Z,1.60
2022-08-30T10:03:40.344Z,1.77
2022-08-30T10:09:04.051Z,1.90
2022-08-30T10:14:12.896Z,2.03
2022-08-30T10:19:42.577Z,2.50
2022-08-30T10:24:50.306Z,1.87
2022-08-30T10:30:06.011Z,1.77
2022-08-30T10:35:10.901Z,1.70
2022-08-30T10:40:43.824Z,1.50
2022-08-30T10:45:50.556Z,1.40
2022-08-30T10:50:56.952Z,1.53
2022-08-30T10:56:11.268Z,1.50
2022-08-30T11:01:29.514Z,1.37
2022-08-30T11:06:40.198Z,1.20
2022-08-30T11:11:54.357Z,1.30
2022-08-30T11:17:01.303Z,1.30
2022-08-30T11:22:29.831Z,1.43
2022-08-30T11:27:50.115Z,1.50
2022-08-30T11:33:26.683Z,1.37
2022-08-30T11:38:29.651Z,1.47
2022-08-30T11:43:56.254Z,1.67
2022-08-30T11:49:01.882Z,1.60
2022-08-30T11:54:09.570Z,1.50
2022-08-30T11:59:38.203Z,1.30
2022-08-30T12:04:45.398Z,1.20
2022-08-30T12:09:47.888Z,1.47
2022-08-30T12:14:54.870Z,1.13
2022-08-30T12:20:02.804Z,1.30
2022-08-30T12:25:17.870Z,1.10
2022-08-30T12:30:27.883Z,1.37
2022-08-30T12:35:36.022Z,1.33
2022-08-30T12:40:48.773Z,1.10
2022-08-30T12:45:51.542Z,1.40
2022-08-30T12:50:55.225Z,1.37
2022-08-30T12:56:10.926Z,1.20
2022-08-30T13:01:18.567Z,1.47
2022-08-30T13:06:44.109Z,1.33
2022-08-30T13:11:48.989Z,1.43
2022-08-30T13:17:07.205Z,1.23
2022-08-30T13:22:28.412Z,1.53
2022-08-30T13:27:36.762Z,1.60
2022-08-30T13:32:44.376Z,1.50
2022-08-30T13:37:52.168Z,1.60
2022-08-30T13:42:55.272Z,1.30
2022-08-30T13:47:57.981Z,1.50
2022-08-30T13:53:02.582Z,1.30
2022-08-30T13:58:07.292Z,1.23
2022-08-30T14:03:14.929Z,1.40
2022-08-30T14:19:18.183Z,1.23
2022-08-30T14:24:25.741Z,1.03
2022-08-30T14:29:30.051Z,1.15
2022-08-30T14:34:32.929Z,1.60
2022-08-30T14:44:56.292Z,1.10
2022-08-30T14:50:04.349Z,1.25
2022-08-30T14:55:10.777Z,1.20
2022-08-30T15:00:16.177Z,1.50
2022-08-30T15:05:22.102Z,1.10
2022-08-30T15:15:26.763Z,1.27
2022-08-30T15:20:29.327Z,1.15
2022-08-30T15:25:32.183Z,0.95
2022-08-30T15:30:36.962Z,1.40
2022-08-30T15:35:39.362Z,1.15
2022-08-30T15:40:48.758Z,1.48
2022-08-30T15:45:54.011Z,1.35
2022-08-30T15:51:00.187Z,1.45
2022-08-30T15:56:11.098Z,1.40
2022-08-30T16:01:16.777Z,1.50
2022-08-30T16:06:25.393Z,1.40
2022-08-30T16:11:30.481Z,1.27
2022-08-30T16:16:39.953Z,1.20
2022-08-30T16:21:44.230Z,1.60
2022-08-30T17:22:53.135Z,3.83
2022-08-30T17:27:58.640Z,2.20
2022-08-30T17:33:01.043Z,2.37
2022-08-30T17:38:05.562Z,2.10
2022-08-30T17:43:10.499Z,2.13
2022-08-30T17:48:17.572Z,2.00
2022-08-30T17:53:20.863Z,1.77
2022-08-30T17:58:23.229Z,2.10
2022-08-30T18:03:26.707Z,1.93
2022-08-30T18:08:29.144Z,1.67
2022-08-30T18:13:34.162Z,1.60
2022-08-30T18:18:37.483Z,1.30
2022-08-30T18:23:42.174Z,1.70
2022-08-30T18:28:47.377Z,1.57
2022-08-30T18:33:52.126Z,1.77
2022-08-30T18:38:54.613Z,3.37
2022-08-30T18:44:26.327Z,2.30
2022-08-30T18:49:27.654Z,3.03
2022-08-30T18:54:30.315Z,3.20
2022-08-30T18:59:35.322Z,2.10
2022-08-30T19:04:42.890Z,3.77
2022-08-30T19:09:47.843Z,2.07
2022-08-30T19:14:56.157Z,2.00
2022-08-30T19:20:01.212Z,1.70
2022-08-30T19:25:11.236Z,1.60
2022-08-30T19:35:38.564Z,2.10
2022-08-30T19:40:41.617Z,1.90
2022-08-30T19:45:52.966Z,1.70
2022-08-30T19:51:00.046Z,1.80
2022-08-30T19:56:05.027Z,1.60
2022-08-30T20:01:32.228Z,1.50
2022-08-30T20:06:32.250Z,1.70
2022-08-30T20:11:38.531Z,1.80
2022-08-30T20:16:51.569Z,1.63
2022-08-30T20:22:07.652Z,1.70
2022-08-30T20:27:12.677Z,1.77
2022-08-30T20:32:15.039Z,1.40
2022-08-30T20:37:17.399Z,1.53
2022-08-30T20:42:20.509Z,1.40
2022-08-30T20:47:25.371Z,1.70
2022-08-30T20:52:30.041Z,2.03
2022-08-30T20:57:34.626Z,3.07
2022-08-30T21:02:46.539Z,2.17
2022-08-30T21:07:53.049Z,1.67
2022-08-30T21:12:58.372Z,1.80
2022-08-30T21:18:03.311Z,1.73
2022-08-30T21:23:05.608Z,1.70
2022-08-30T21:28:13.852Z,1.70
2022-08-30T21:33:27.429Z,1.60
2022-08-30T21:38:37.728Z,1.67
2022-08-30T21:43:42.262Z,1.30
2022-08-30T21:48:46.602Z,1.27
2022-08-30T21:53:57.312Z,1.63
2022-08-30T21:59:06.120Z,1.17
2022-08-30T22:04:12.225Z,1.43
2022-08-30T22:09:18.087Z,1.40
2022-08-30T22:14:26.527Z,1.60
2022-08-30T22:19:33.568Z,1.47
2022-08-30T22:24:36.414Z,1.53
2022-08-30T22:29:39.545Z,1.50
2022-08-30T22:34:44.498Z,1.30
2022-08-30T22:39:50.509Z,1.07
2022-08-30T22:44:53.032Z,1.30
2022-08-30T22:49:55.465Z,1.20
2022-08-30T22:54:58.084Z,1.23
2022-08-30T23:00:10.948Z,1.33
2022-08-30T23:05:20.232Z,1.30
2022-08-30T23:10:28.254Z,1.50
2022-08-30T23:15:30.686Z,1.20
2022-08-30T23:20:37.870Z,1.30
2022-08-30T23:26:01.418Z,1.60
2022-08-30T23:31:30.853Z,1.30
2022-08-30T23:36:52.278Z,0.90
2022-08-30T23:42:13.334Z,1.17
2022-08-30T23:47:34.507Z,0.90
2022-08-30T23:52:55.618Z,1.00
2022-08-30T23:58:16.736Z,1.10
